Savannah, GA

6:38 AM EDT on June 24, 2018 (GMT -0400)
Winter Gardens | | Change Station
Active Advisory: Heat Advisory

Elev 30 ft 32.05 °N, 81.07 °W | Updated 13 seconds ago

Clear
Clear
78.3 °F
Feels Like 81 °F
N
0
Wind Variable Wind from SW
Gusts 0.0 mph

Today
High -- | Low -- °F
--% Chance of Precip.
Yesterday
High -- | Low -- °F
Precip. -- in
Pressure 29.97 in
Visibility 10.0 miles
Clouds Clear
Heat Index 81 °F
Dew Point 75 °F
Humidity 91%
Rainfall 0.00 in
Snow Depth Not available.
6:19 AM 8:34 PM
Waxing Gibbous, 87% visible
METAR KSVN 240956Z AUTO 24003KT 10SM CLR 26/24 A2996 RMK AO2 SLP148 T02550239 $
Pressure 29.97 in
Visibility 10.0 miles
Clouds Clear
Heat Index 81 °F
Dew Point 75 °F
Humidity 91%
Rainfall 0.00 in
Snow Depth Not available.
6:19 AM 8:34 PM
Waxing Gibbous, 87% visible
METAR KSVN 240956Z AUTO 24003KT 10SM CLR 26/24 A2996 RMK AO2 SLP148 T02550239 $

Get Your Daily Forecast Email!

Thanks for signing up!

Be on the lookout for a verification email in your inbox.

You'll start receiving severe weather alerts in your inbox..

×

10-Day Weather Forecast

Almanac

Astronomy

Jun. 24, 2018 Rise Set
Actual Time
Civil Twilight
Nautical Twilight
Astronomical Twilight
Moon
Length of Visible Light
Length of Day
Tomorrow will be .
, % of the Moon is Illuminated

Today's Extremes

State Highs State Lows

Community

WunderPhotos

Category 6

Welcome to Category 6. This is the collective home for Weather Underground's featured writeups by Dr. Jeff Masters (right), Bob Henson (left), Chris Burt, and other regular contributors.

Nearby

Air Quality

  Air Quality AQ Index Pollutant
Not available.

Snow Depth

Station Depth Elevation

Earthquake Activity

City Distance Mag. Time & Date
Minimum magnitude displayed is 2.5.

Coastal Water Temperatures

Place Temperature

Stations

Nearby Weather Stations

Station Location Temp. Windchill Dew Point Humidity Wind Precip. Elev Updated Type
                   

Watches & Warnings

Heat Advisory
Issued: 3:26 AM EDT Jun. 24, 2018 – National Weather Service

... Heat advisory remains in effect from 11 am this morning to
8 PM EDT this evening...

* heat index values... 105 to 110 degrees.

* Timing... the worst conditions will be from 2 PM to 6 PM Sunday
afternoon.

* Impacts... the heat and humidity may cause heat stress during
outdoor activities.

Precautionary/preparedness actions...

If you must be outdoors, drink plenty of fluids, wear light
weight clothing and stay out of direct sunshine. In addition,
know the signs of heat illnesses and be sure to check on those
who are most vulnerable to the heat such as Young children and
the elderly. Never leave children or pets in a vehicle.

To reduce risk during outdoor work, the occupational safety and
health administration recommends scheduling frequent rest breaks
in shaded or air conditioned environments. Anyone overcome by
heat should be moved to a cool and shaded location. Heat stroke
is an emergency - call 9 1 1.